»·PEaware :: N7274H KSNA-KCRQ

N7274H :: KSNA-KCRQ

FLIGHT INFORMATION

Flight Status: Arrived
Operator: Privately registered:
United States
More flights under this callsign
Pilot: Thiago S. (19132)
Aircraft: CESSNA 172 SKYHAWK
(C172)
More flights by this aircraft type
Origin: KSNA John Wayne-Orange Co
United States
Destination: KCRQ McClellan-Palomar
United States
More flights between these airports :: More routes between these airports
Route: +V23 OCN
File this flight plan on PilotEdge
Remarks: I RATING 2
Altitude:
(Current/Filed)
5,000ft
Speed:
(Current/Filed)
100kts
Departed: 15-Feb-19 12:58 PM
Arrived: 15-Feb-19 01:39 PM
Distance/Time
Traveled:
0nm/0:41
Distance/Time
To Go:
Arrived

Flight Plot

Page will automatically refresh every two minutes.


Map Options




Map Legend


Flown Route
Filed Route
Departure Airport
Arrival Airport
Navaid (VOR, NDB)
Fix

Horizontal Profiles

Position Reports

Time Latitude Longitude Heading Altitude Ground
Speed
15-Feb-19 12:30 33.677049 -117.870661 119 59ft 0kts
15-Feb-19 12:31 33.677049 -117.870661 119 59ft 0kts
15-Feb-19 12:32 33.677049 -117.870661 119 59ft 0kts
15-Feb-19 12:33 33.677049 -117.870661 119 59ft 0kts
15-Feb-19 12:34 33.677049 -117.870661 119 59ft 0kts
15-Feb-19 12:35 33.677049 -117.870661 119 59ft 0kts
15-Feb-19 12:36 33.677049 -117.870661 119 59ft 0kts
15-Feb-19 12:37 33.677049 -117.870661 119 59ft 0kts
15-Feb-19 12:38 33.677049 -117.870661 119 59ft 0kts
15-Feb-19 12:39 33.677049 -117.870660 119 59ft 0kts
15-Feb-19 12:40 33.677049 -117.870660 119 59ft 0kts
15-Feb-19 12:41 33.677049 -117.870660 119 59ft 0kts
15-Feb-19 12:42 33.677047 -117.870657 119 59ft 0kts
15-Feb-19 12:43 33.677044 -117.870651 119 59ft 0kts
15-Feb-19 12:44 33.677042 -117.870646 119 59ft 0kts
15-Feb-19 12:45 33.677039 -117.870641 119 59ft 0kts
15-Feb-19 12:46 33.677037 -117.870636 119 59ft 0kts
15-Feb-19 12:47 33.677035 -117.870631 119 59ft 0kts
15-Feb-19 12:48 33.677033 -117.870627 119 59ft 0kts
15-Feb-19 12:49 33.677031 -117.870623 119 59ft 0kts
15-Feb-19 12:50 33.677029 -117.870618 119 59ft 0kts
15-Feb-19 12:51 33.677027 -117.870614 119 59ft 0kts
15-Feb-19 12:52 33.677025 -117.870609 118 59ft 0kts
15-Feb-19 12:53 33.676943 -117.869759 27 59ft 7kts
15-Feb-19 12:54 33.680907 -117.867391 27 59ft 9kts
15-Feb-19 12:55 33.680809 -117.866379 116 59ft 0kts
15-Feb-19 12:56 33.680778 -117.866305 116 59ft 2kts
15-Feb-19 12:57 33.674139 -117.869558 205 211ft 74kts
15-Feb-19 12:58 33.651884 -117.876892 184 950ft 89kts
15-Feb-19 12:59 33.626780 -117.878679 184 1474ft 84kts
15-Feb-19 13:00 33.604552 -117.879607 183 2035ft 89kts
15-Feb-19 13:01 33.581523 -117.881118 184 2790ft 74kts
15-Feb-19 13:02 33.557375 -117.883271 185 3309ft 101kts
15-Feb-19 13:03 33.533267 -117.878959 117 3926ft 93kts
15-Feb-19 13:04 33.524120 -117.850740 113 4548ft 94kts
15-Feb-19 13:05 33.514973 -117.820519 114 5117ft 101kts
15-Feb-19 13:06 33.504100 -117.784728 113 5033ft 119kts
15-Feb-19 13:07 33.492723 -117.747633 113 5007ft 117kts
15-Feb-19 13:08 33.481439 -117.710774 113 5001ft 118kts
15-Feb-19 13:09 33.467526 -117.675520 133 5007ft 115kts
15-Feb-19 13:10 33.447468 -117.645166 132 5001ft 116kts
15-Feb-19 13:11 33.424957 -117.617767 141 5003ft 115kts
15-Feb-19 13:12 33.401736 -117.591261 140 4999ft 115kts
15-Feb-19 13:13 33.378979 -117.564171 139 4984ft 114kts
15-Feb-19 13:14 33.356412 -117.537250 139 4984ft 114kts
15-Feb-19 13:15 33.334036 -117.510413 138 4982ft 114kts
15-Feb-19 13:16 33.308994 -117.487945 149 4982ft 112kts
15-Feb-19 13:17 33.282652 -117.468387 152 4981ft 111kts
15-Feb-19 13:18 33.260335 -117.442063 130 4983ft 115kts
15-Feb-19 13:20 33.245200 -117.408410 85 4992ft 125kts
15-Feb-19 13:21 33.250230 -117.366557 82 4983ft 128kts
15-Feb-19 13:22 33.255416 -117.324657 82 4984ft 123kts
15-Feb-19 13:23 33.260484 -117.283914 82 4981ft 130kts
15-Feb-19 13:24 33.265825 -117.240516 82 4983ft 127kts
15-Feb-19 13:25 33.270932 -117.199384 82 4981ft 124kts
15-Feb-19 13:26 33.276030 -117.158344 82 4981ft 122kts
15-Feb-19 13:27 33.281062 -117.117902 82 4976ft 129kts
15-Feb-19 13:28 33.264890 -117.086026 160 4689ft 123kts
15-Feb-19 13:29 33.233615 -117.070300 160 4190ft 122kts
15-Feb-19 13:30 33.202119 -117.054874 160 3733ft 119kts
15-Feb-19 13:31 33.173313 -117.048252 217 3576ft 108kts
15-Feb-19 13:32 33.160884 -117.077778 269 3549ft 101kts
15-Feb-19 13:33 33.156028 -117.112176 256 3344ft 105kts
15-Feb-19 13:34 33.149659 -117.147195 257 2778ft 109kts
15-Feb-19 13:35 33.144233 -117.183581 260 2047ft 111kts
15-Feb-19 13:36 33.138483 -117.217779 257 1421ft 100kts
15-Feb-19 13:37 33.133721 -117.247420 258 885ft 80kts
15-Feb-19 13:38 33.129935 -117.270032 255 413ft 51kts
15-Feb-19 13:38 33.128424 -117.278955 258 334ft 20kts
15-Feb-19 13:40 33.126016 -117.280770 169 334ft 13kts
15-Feb-19 13:41 33.124054 -117.280503 343 334ft 2kts
15-Feb-19 13:41 33.667969 -117.871467 37 56ft 0kts

Navigation Log

Ident Type
Flight plan parsing failed, navigation log unavailable